Time;durP1;ratioP1;P1;durP2;ratioP2;P2;SDS_P1;SDS_P2;PMS_P1;PMS_P2;Temp;Humidity;BMP_temperature;BMP_pressure;BME280_temperature;BME280_humidity;BME280_pressure;Samples;Min_cycle;Max_cycle;Signal;HPM_P1;HPM_P2
2021/10/13 00:01:43;;;;;;;;;;;;;;;5.19;66.64;100868.88;4922786;28;97954;-56
2021/10/13 00:04:09;;;;;;;;;;;;;;;5.15;65.85;100865.81;4921136;28;128469;-58
2021/10/13 00:06:34;;;;;;;;;;;;;;;5.14;66.08;100866.00;4920746;28;128598;-57
2021/10/13 00:09:00;;;;;;;;;;;;;;;5.12;66.41;100868.09;4921526;28;98007;-58
2021/10/13 00:11:26;;;;;;;;;;;;;;;5.09;66.10;100876.56;4919997;28;97944;-56
2021/10/13 00:13:52;;;;;;;;;;;;;;;5.07;66.44;100881.28;4921012;28;127801;-57
2021/10/13 00:16:18;;;;;;;;;;;;;;;5.04;65.79;100879.91;4921134;28;127971;-58
2021/10/13 00:18:44;;;;;;;;;;;;;;;5.03;66.55;100880.09;4920768;28;127303;-58
2021/10/13 00:21:10;;;;;;;;;;;;;;;5.02;66.51;100881.16;4922480;28;97864;-58
2021/10/13 00:23:36;;;;;;;;;;;;;;;4.99;65.87;100878.91;4921656;28;98663;-56
2021/10/13 00:26:02;;;;;;;;;;;;;;;4.97;65.89;100886.34;4922011;28;98134;-56
2021/10/13 00:28:28;;;;;;;;;;;;;;;4.94;66.43;100882.25;4921380;28;109645;-58
2021/10/13 00:30:54;;;;;;;;;;;;;;;4.91;65.82;100880.84;4921230;28;116860;-57
2021/10/13 00:33:20;;;;;;;;;;;;;;;4.90;66.19;100883.72;4920997;28;98726;-57
2021/10/13 00:35:46;;;;;;;;;;;;;;;4.86;66.38;100875.31;4921004;28;128253;-58
2021/10/13 00:38:12;;;;;;;;;;;;;;;4.81;66.48;100877.84;4920801;28;100469;-57
2021/10/13 00:40:37;;;;;;;;;;;;;;;4.79;66.04;100879.09;4921714;28;97860;-58
2021/10/13 00:43:04;;;;;;;;;;;;;;;4.75;66.46;100876.03;4920602;28;111200;-56
2021/10/13 00:45:30;;;;;;;;;;;;;;;4.74;66.17;100876.28;4920964;28;120793;-58
2021/10/13 00:47:56;;;;;;;;;;;;;;;4.72;66.48;100873.00;4920545;28;126938;-56
2021/10/13 00:50:22;;;;;;;;;;;;;;;4.70;66.45;100870.53;4921641;28;117754;-56
2021/10/13 00:52:47;;;;;;;;;;;;;;;4.70;66.44;100877.75;4934648;28;128237;-57
2021/10/13 00:55:20;;;;;;;;;;;;;;;4.68;66.18;100881.47;4919739;28;127959;-58
2021/10/13 00:57:48;;;;;;;;;;;;;;;4.64;66.33;100876.78;4920966;28;98002;-58
2021/10/13 01:00:14;;;;;;;;;;;;;;;4.63;66.69;100885.81;4923053;28;97699;-57
2021/10/13 01:03:00;;;;;;;;;;;;;;;4.60;66.04;100878.25;4920456;28;98332;-58
2021/10/13 01:05:58;;;;;;;;;;;;;;;4.58;66.10;100880.31;4921587;28;98546;-58
2021/10/13 01:08:35;;;;;;;;;;;;;;;4.55;65.88;100891.41;4933957;28;98001;-56
2021/10/13 01:11:11;;;;;;;;;;;;;;;4.52;66.48;100895.34;4903913;28;97972;-58
2021/10/13 01:13:48;;;;;;;;;;;;;;;4.50;66.23;100899.25;4921102;28;122117;-57
2021/10/13 01:16:18;;;;;;;;;;;;;;;4.49;66.49;100897.63;4918534;28;99324;-58
2021/10/13 01:18:52;;;;;;;;;;;;;;;4.46;66.17;100903.41;4920850;28;97885;-58
2021/10/13 01:21:36;;;;;;;;;;;;;;;4.45;66.31;100904.44;4921334;28;105645;-58
2021/10/13 01:24:13;;;;;;;;;;;;;;;4.43;66.39;100905.44;4922311;28;120011;-58
2021/10/13 01:26:59;;;;;;;;;;;;;;;4.42;66.61;100903.81;4939494;28;98373;-58
2021/10/13 01:29:25;;;;;;;;;;;;;;;4.43;65.92;100904.63;4938471;28;97978;-57
2021/10/13 01:31:53;;;;;;;;;;;;;;;4.37;66.05;100901.00;4905644;28;117420;-58
2021/10/13 01:34:22;;;;;;;;;;;;;;;4.42;66.24;100908.34;4923922;28;121492;-56
2021/10/13 01:37:03;;;;;;;;;;;;;;;4.41;66.40;100906.72;4905869;28;98902;-58
2021/10/13 01:39:29;;;;;;;;;;;;;;;4.42;66.44;100911.03;4906348;28;99967;-58
2021/10/13 01:41:56;;;;;;;;;;;;;;;4.42;66.31;100916.34;4905199;28;117889;-56
2021/10/13 01:44:21;;;;;;;;;;;;;;;4.41;66.51;100920.88;4922812;28;98534;-56
2021/10/13 01:46:47;;;;;;;;;;;;;;;4.41;66.08;100920.06;4921352;28;127413;-56
2021/10/13 01:49:14;;;;;;;;;;;;;;;4.41;65.98;100926.22;4923518;28;128532;-59
2021/10/13 01:51:41;;;;;;;;;;;;;;;4.41;65.94;100931.56;4940404;28;97887;-58
2021/10/13 01:54:07;;;;;;;;;;;;;;;4.39;66.27;100924.78;4921684;28;98182;-58
2021/10/13 01:56:33;;;;;;;;;;;;;;;4.41;66.54;100934.22;4921393;28;110207;-57
2021/10/13 01:59:04;;;;;;;;;;;;;;;4.40;66.24;100935.28;4937073;28;127170;-57
2021/10/13 02:01:30;;;;;;;;;;;;;;;4.43;66.14;100944.69;4938593;28;97823;-58
2021/10/13 02:03:58;;;;;;;;;;;;;;;4.44;66.44;100940.97;4923556;28;99539;-57
2021/10/13 02:06:24;;;;;;;;;;;;;;;4.44;66.49;100943.66;4922568;28;100894;-56
2021/10/13 02:08:51;;;;;;;;;;;;;;;4.44;66.74;100940.97;4904442;28;126960;-58
2021/10/13 02:11:17;;;;;;;;;;;;;;;4.45;66.58;100950.66;4923983;28;117781;-56
2021/10/13 02:13:43;;;;;;;;;;;;;;;4.45;66.48;100944.50;4937455;28;98437;-56
2021/10/13 02:16:09;;;;;;;;;;;;;;;4.43;66.04;100948.16;4938317;28;128040;-59
2021/10/13 02:18:35;;;;;;;;;;;;;;;4.43;66.37;100955.38;4904424;28;128135;-56
2021/10/13 02:21:02;;;;;;;;;;;;;;;4.40;66.44;100955.78;4921955;28;97680;-58
2021/10/13 02:23:33;;;;;;;;;;;;;;;4.41;66.18;100957.44;4937256;28;118103;-57
2021/10/13 02:26:04;;;;;;;;;;;;;;;4.38;66.43;100960.53;4924075;28;116149;-58
2021/10/13 02:28:36;;;;;;;;;;;;;;;4.36;66.00;100963.44;4904682;28;100477;-57
2021/10/13 02:31:01;;;;;;;;;;;;;;;4.32;66.14;100962.22;4906303;28;108806;-58
2021/10/13 02:33:27;;;;;;;;;;;;;;;4.30;66.50;100972.28;4922919;28;100509;-58
2021/10/13 02:35:53;;;;;;;;;;;;;;;4.29;66.02;100973.31;4922530;28;128082;-58
2021/10/13 02:38:19;;;;;;;;;;;;;;;4.26;66.52;100960.41;4922810;28;97845;-58
2021/10/13 02:40:45;;;;;;;;;;;;;;;4.26;66.05;100970.25;4923897;28;97667;-56
2021/10/13 02:43:11;;;;;;;;;;;;;;;4.24;66.34;100972.31;4922333;28;128025;-58
2021/10/13 02:45:38;;;;;;;;;;;;;;;4.23;66.17;100982.16;4921630;28;123180;-56
2021/10/13 02:48:11;;;;;;;;;;;;;;;4.21;66.03;100976.25;4937136;28;98155;-56
2021/10/13 02:50:53;;;;;;;;;;;;;;;4.18;66.59;100985.47;4937052;28;107636;-58
2021/10/13 02:53:39;;;;;;;;;;;;;;;4.18;66.27;100990.00;4937495;28;98399;-56
2021/10/13 02:56:18;;;;;;;;;;;;;;;4.15;65.96;100988.56;4938577;28;98744;-58
2021/10/13 02:58:54;;;;;;;;;;;;;;;4.11;65.99;100989.22;4936786;28;98150;-58
2021/10/13 03:01:20;;;;;;;;;;;;;;;4.10;66.21;100990.25;4938212;28;97803;-58
2021/10/13 03:03:59;;;;;;;;;;;;;;;4.09;66.28;100991.28;4903486;28;128040;-58
2021/10/13 03:06:30;;;;;;;;;;;;;;;4.08;66.29;100989.63;4937870;28;98123;-58
2021/10/13 03:08:56;;;;;;;;;;;;;;;4.07;66.23;100993.31;4921743;28;98230;-56
2021/10/13 03:11:23;;;;;;;;;;;;;;;4.07;65.93;100998.66;4905542;28;97767;-58
2021/10/13 03:13:49;;;;;;;;;;;;;;;4.06;66.14;100999.69;4904107;28;105570;-58
2021/10/13 03:16:15;;;;;;;;;;;;;;;4.05;66.26;101006.91;4921162;28;98816;-59
2021/10/13 03:18:41;;;;;;;;;;;;;;;4.04;66.21;101007.91;4920263;28;127489;-56
2021/10/13 03:21:08;;;;;;;;;;;;;;;4.02;66.23;101003.81;4905287;28;117421;-58
2021/10/13 03:23:34;;;;;;;;;;;;;;;3.99;65.87;101005.06;4904186;28;98838;-56
2021/10/13 03:26:10;;;;;;;;;;;;;;;4.00;66.25;101008.53;4921392;28;128015;-58
2021/10/13 03:28:37;;;;;;;;;;;;;;;3.98;66.17;101015.94;4922327;28;98377;-58
2021/10/13 03:31:03;;;;;;;;;;;;;;;3.96;66.18;101013.47;4922449;28;108503;-58
2021/10/13 03:33:29;;;;;;;;;;;;;;;3.93;65.96;101014.72;4921661;28;126403;-58
2021/10/13 03:35:55;;;;;;;;;;;;;;;3.92;66.17;101020.25;4921777;28;127501;-58
2021/10/13 03:38:21;;;;;;;;;;;;;;;3.89;66.23;101016.19;4920787;28;127487;-58
2021/10/13 03:40:47;;;;;;;;;;;;;;;3.88;66.42;101019.03;4922937;28;97807;-56
2021/10/13 03:43:13;;;;;;;;;;;;;;;3.87;66.07;101017.41;4923033;28;98513;-57
2021/10/13 03:45:39;;;;;;;;;;;;;;;3.87;66.02;101028.09;4921398;28;127251;-56
2021/10/13 03:48:05;;;;;;;;;;;;;;;3.85;66.19;101027.44;4920401;28;127756;-56
2021/10/13 03:50:30;;;;;;;;;;;;;;;3.86;66.35;101029.94;4922713;28;117316;-56
2021/10/13 03:52:56;;;;;;;;;;;;;;;3.88;66.02;101037.72;4921305;28;127840;-56
2021/10/13 03:55:22;;;;;;;;;;;;;;;3.85;66.41;101036.31;4922292;28;106516;-58
2021/10/13 03:57:48;;;;;;;;;;;;;;;3.85;66.45;101046.13;4921247;28;128118;-56
2021/10/13 04:00:17;;;;;;;;;;;;;;;3.83;66.27;101040.19;4922939;28;97767;-58
2021/10/13 04:02:43;;;;;;;;;;;;;;;3.84;66.24;101044.50;4921143;28;98978;-57
2021/10/13 04:05:09;;;;;;;;;;;;;;;3.84;66.46;101053.31;4922415;28;117181;-58
2021/10/13 04:07:35;;;;;;;;;;;;;;;3.84;66.38;101055.97;4921129;28;118808;-58
2021/10/13 04:10:01;;;;;;;;;;;;;;;3.84;66.49;101055.16;4922982;28;97946;-58
2021/10/13 04:12:29;;;;;;;;;;;;;;;3.83;66.15;101046.34;4922151;28;98288;-58
2021/10/13 04:14:55;;;;;;;;;;;;;;;3.83;66.33;101054.34;4936836;28;99129;-56
2021/10/13 04:17:21;;;;;;;;;;;;;;;3.81;66.01;101059.09;4921681;28;97907;-56
2021/10/13 04:19:47;;;;;;;;;;;;;;;3.79;66.16;101057.66;4921550;28;117084;-59
2021/10/13 04:22:13;;;;;;;;;;;;;;;3.79;66.33;101068.31;4921330;28;129048;-56
2021/10/13 04:24:38;;;;;;;;;;;;;;;3.79;66.43;101070.97;4921269;28;126164;-56
2021/10/13 04:27:04;;;;;;;;;;;;;;;3.79;66.46;101071.78;4921127;28;127302;-58
2021/10/13 04:29:30;;;;;;;;;;;;;;;3.81;66.83;101076.91;4921932;28;99692;-58
2021/10/13 04:31:56;;;;;;;;;;;;;;;3.82;66.16;101070.56;4921932;28;98313;-56
2021/10/13 04:34:22;;;;;;;;;;;;;;;3.83;66.70;101072.19;4920434;28;127357;-58
2021/10/13 04:36:48;;;;;;;;;;;;;;;3.84;66.66;101073.84;4920421;28;128003;-57
2021/10/13 04:39:14;;;;;;;;;;;;;;;3.85;66.86;101070.13;4920898;28;118311;-56
2021/10/13 04:41:40;;;;;;;;;;;;;;;3.85;66.79;101068.31;4921016;28;126847;-56
2021/10/13 04:44:06;;;;;;;;;;;;;;;3.85;66.61;101070.13;4920458;28;128055;-58
2021/10/13 04:46:32;;;;;;;;;;;;;;;3.86;66.71;101075.28;4917823;28;128234;-56
2021/10/13 04:48:59;;;;;;;;;;;;;;;3.84;66.38;101073.84;4922333;28;97845;-58
2021/10/13 04:51:25;;;;;;;;;;;;;;;3.81;66.57;101074.25;4921965;28;111478;-57
2021/10/13 04:53:51;;;;;;;;;;;;;;;3.79;66.29;101079.78;4920071;28;128849;-57
2021/10/13 04:56:17;;;;;;;;;;;;;;;3.75;66.41;101075.91;4921728;28;127129;-58
2021/10/13 04:58:43;;;;;;;;;;;;;;;3.73;66.46;101079.78;4922039;28;97946;-58
2021/10/13 05:01:08;;;;;;;;;;;;;;;3.71;66.72;101080.00;4925074;28;98947;-58
2021/10/13 05:03:34;;;;;;;;;;;;;;;3.69;66.61;101082.06;4924120;28;128683;-58
2021/10/13 05:06:00;;;;;;;;;;;;;;;3.69;66.53;101082.91;4924564;28;125348;-58
2021/10/13 05:08:26;;;;;;;;;;;;;;;3.70;66.63;101089.06;4923904;28;117677;-56
2021/10/13 05:10:52;;;;;;;;;;;;;;;3.71;66.62;101096.00;4925035;28;98502;-58
2021/10/13 05:13:18;;;;;;;;;;;;;;;3.73;66.60;101093.94;4924567;28;117481;-58
2021/10/13 05:15:44;;;;;;;;;;;;;;;3.75;66.59;101101.75;4925317;28;110879;-56
2021/10/13 05:18:11;;;;;;;;;;;;;;;3.76;66.84;101098.88;4924577;28;115064;-58
2021/10/13 05:20:37;;;;;;;;;;;;;;;3.78;66.67;101104.03;4926225;28;97889;-58
2021/10/13 05:23:04;;;;;;;;;;;;;;;3.80;66.60;101108.09;4923131;28;117503;-58
2021/10/13 05:25:30;;;;;;;;;;;;;;;3.82;66.45;101103.41;4923764;28;98326;-58
2021/10/13 05:27:56;;;;;;;;;;;;;;;3.84;66.69;101120.00;4923891;28;110592;-56
2021/10/13 05:30:22;;;;;;;;;;;;;;;3.88;66.69;101115.88;4924076;28;127552;-56
2021/10/13 05:32:47;;;;;;;;;;;;;;;3.89;66.60;101114.88;4923369;28;112718;-56
2021/10/13 05:35:13;;;;;;;;;;;;;;;3.92;66.74;101124.28;4924358;28;126667;-58
2021/10/13 05:37:40;;;;;;;;;;;;;;;3.93;66.76;101128.63;4923281;28;115505;-57
2021/10/13 05:40:06;;;;;;;;;;;;;;;3.95;66.66;101126.56;4924123;28;98293;-56
2021/10/13 05:42:32;;;;;;;;;;;;;;;3.99;66.41;101140.31;4923030;28;118981;-58
2021/10/13 05:44:58;;;;;;;;;;;;;;;4.00;66.73;101132.09;4924163;28;126008;-56
2021/10/13 05:47:24;;;;;;;;;;;;;;;4.02;66.58;101134.56;4924027;28;99115;-56
2021/10/13 05:49:50;;;;;;;;;;;;;;;4.08;66.61;101145.19;4924650;28;100171;-58
2021/10/13 05:52:17;;;;;;;;;;;;;;;4.13;66.76;101145.41;4923075;28;125016;-59
2021/10/13 05:54:43;;;;;;;;;;;;;;;4.18;66.90;101144.78;4925083;28;98275;-58
2021/10/13 05:57:09;;;;;;;;;;;;;;;4.22;66.90;101150.53;4904744;28;104873;-58
2021/10/13 05:59:37;;;;;;;;;;;;;;;4.22;66.40;101148.69;4923951;28;98516;-57
2021/10/13 06:02:04;;;;;;;;;;;;;;;4.24;66.50;101154.63;4923798;28;97803;-57
2021/10/13 06:04:29;;;;;;;;;;;;;;;4.27;66.65;101151.53;4922893;28;123120;-56
2021/10/13 06:06:55;;;;;;;;;;;;;;;4.32;66.69;101158.91;4922626;28;108961;-56
2021/10/13 06:09:21;;;;;;;;;;;;;;;4.38;67.04;101171.44;4923380;28;99147;-58
2021/10/13 06:11:47;;;;;;;;;;;;;;;4.44;66.83;101162.56;4922639;28;126636;-58
2021/10/13 06:14:13;;;;;;;;;;;;;;;4.50;66.51;101167.09;4923919;28;103245;-58
2021/10/13 06:16:39;;;;;;;;;;;;;;;4.56;66.32;101168.94;4937988;28;117354;-58
2021/10/13 06:19:05;;;;;;;;;;;;;;;4.61;66.51;101170.97;4923536;28;98096;-57
2021/10/13 06:21:31;;;;;;;;;;;;;;;4.66;66.58;101168.47;4922932;28;128296;-58
2021/10/13 06:23:57;;;;;;;;;;;;;;;4.72;66.11;101178.31;4923512;28;97916;-57
2021/10/13 06:26:23;;;;;;;;;;;;;;;4.75;66.51;101182.41;4924264;28;98140;-56
2021/10/13 06:28:49;;;;;;;;;;;;;;;4.77;66.23;101183.84;4924013;28;98580;-57
2021/10/13 06:31:15;;;;;;;;;;;;;;;4.81;66.01;101187.72;4923727;28;98674;-58
2021/10/13 06:33:41;;;;;;;;;;;;;;;4.86;66.73;101201.25;4923849;28;98168;-58
2021/10/13 06:36:07;;;;;;;;;;;;;;;4.92;66.62;101196.94;4921823;28;97893;-56
2021/10/13 06:38:34;;;;;;;;;;;;;;;5.01;66.14;101194.84;4923647;28;98433;-57
2021/10/13 06:41:00;;;;;;;;;;;;;;;5.10;66.31;101197.03;4922405;28;98859;-58
2021/10/13 06:43:27;;;;;;;;;;;;;;;5.20;65.98;101203.81;4922478;28;115467;-57
2021/10/13 06:45:53;;;;;;;;;;;;;;;5.30;66.23;101210.31;4923565;28;97762;-58
2021/10/13 06:48:20;;;;;;;;;;;;;;;5.41;65.52;101212.28;4923461;28;98221;-58
2021/10/13 06:50:46;;;;;;;;;;;;;;;5.50;65.60;101220.06;4923707;28;99277;-58
2021/10/13 06:53:12;;;;;;;;;;;;;;;5.60;66.08;101223.09;4927283;28;110394;-57
2021/10/13 06:55:38;;;;;;;;;;;;;;;5.70;65.45;101225.28;4923246;28;117471;-58
2021/10/13 06:58:05;;;;;;;;;;;;;;;5.82;66.12;101229.75;4923326;28;98455;-56
2021/10/13 07:00:31;;;;;;;;;;;;;;;5.95;65.31;101234.19;4923111;28;99271;-56
2021/10/13 07:02:57;;;;;;;;;;;;;;;6.09;65.21;101237.56;4922443;28;99295;-57
2021/10/13 07:05:23;;;;;;;;;;;;;;;6.22;65.30;101229.44;4922360;28;118309;-56
2021/10/13 07:07:49;;;;;;;;;;;;;;;6.37;65.05;101237.13;4923278;28;97994;-60
2021/10/13 07:10:15;;;;;;;;;;;;;;;6.48;65.43;101236.38;4922338;28;98426;-56
2021/10/13 07:12:41;;;;;;;;;;;;;;;6.57;65.13;101242.28;4923081;28;98128;-58
2021/10/13 07:15:08;;;;;;;;;;;;;;;6.66;65.18;101246.31;4937221;28;117903;-58
2021/10/13 07:17:34;;;;;;;;;;;;;;;6.76;65.10;101235.06;4922806;28;99291;-57
2021/10/13 07:20:01;;;;;;;;;;;;;;;6.82;65.27;101240.34;4923070;28;118437;-58
2021/10/13 07:22:28;;;;;;;;;;;;;;;6.91;65.18;101243.56;4922641;28;98356;-56
2021/10/13 07:24:55;;;;;;;;;;;;;;;6.93;65.13;101238.81;4923058;28;97843;-58
2021/10/13 07:27:21;;;;;;;;;;;;;;;6.96;65.51;101238.34;4921658;28;99065;-58
2021/10/13 07:29:55;;;;;;;;;;;;;;;7.02;65.24;101242.00;4921743;28;116513;-58
2021/10/13 07:32:21;;;;;;;;;;;;;;;7.08;65.14;101243.78;4922808;28;98183;-57
2021/10/13 07:34:46;;;;;;;;;;;;;;;7.18;65.41;101244.06;4923060;28;117706;-58
2021/10/13 07:37:12;;;;;;;;;;;;;;;7.32;64.92;101248.22;4903619;28;126262;-57
2021/10/13 07:39:39;;;;;;;;;;;;;;;7.41;64.80;101262.13;4936219;28;127836;-57
2021/10/13 07:42:05;;;;;;;;;;;;;;;7.50;65.27;101266.09;4922587;28;98063;-58
2021/10/13 07:44:31;;;;;;;;;;;;;;;7.68;64.73;101254.53;4936463;28;118398;-57
2021/10/13 07:46:57;;;;;;;;;;;;;;;7.77;64.73;101249.63;4921339;28;128180;-58
2021/10/13 07:49:23;;;;;;;;;;;;;;;7.94;64.36;101260.53;4921574;28;126888;-58
2021/10/13 07:51:49;;;;;;;;;;;;;;;8.14;64.22;101254.88;4922962;28;97979;-57
2021/10/13 07:54:15;;;;;;;;;;;;;;;8.31;63.65;101269.22;4922035;28;98006;-59
2021/10/13 07:56:41;;;;;;;;;;;;;;;8.55;63.68;101254.78;4922231;28;97878;-58
2021/10/13 07:59:07;;;;;;;;;;;;;;;8.74;63.78;101265.41;4921664;28;127073;-56
2021/10/13 08:01:33;;;;;;;;;;;;;;;9.76;60.92;101259.34;4922577;28;97832;-59
2021/10/13 08:03:59;;;;;;;;;;;;;;;9.80;61.97;101258.59;4921962;28;97815;-58
2021/10/13 08:06:25;;;;;;;;;;;;;;;9.90;61.52;101260.63;4922345;28;98714;-58
2021/10/13 08:08:52;;;;;;;;;;;;;;;9.92;61.55;101265.81;4919048;28;98029;-57
2021/10/13 08:11:18;;;;;;;;;;;;;;;10.03;62.22;101265.72;4921950;28;128065;-59
2021/10/13 08:13:44;;;;;;;;;;;;;;;10.23;61.30;101265.22;4921875;28;116650;-58
2021/10/13 08:16:10;;;;;;;;;;;;;;;10.11;62.00;101266.38;4921134;28;127958;-57
2021/10/13 08:18:35;;;;;;;;;;;;;;;10.11;62.05;101267.19;4920866;28;128325;-58
2021/10/13 08:21:02;;;;;;;;;;;;;;;10.05;61.73;101274.38;4922046;28;126981;-58
2021/10/13 08:23:28;;;;;;;;;;;;;;;10.00;62.18;101274.28;4922293;28;98085;-57
2021/10/13 08:25:58;;;;;;;;;;;;;;;10.00;62.08;101276.97;4920814;28;128305;-59
2021/10/13 08:28:27;;;;;;;;;;;;;;;9.86;62.76;101277.53;4921806;28;98075;-57
2021/10/13 08:30:53;;;;;;;;;;;;;;;9.86;62.32;101278.34;4903595;28;98252;-58
2021/10/13 08:33:19;;;;;;;;;;;;;;;10.50;61.02;101275.38;4903578;28;105814;-57
2021/10/13 08:35:45;;;;;;;;;;;;;;;10.34;61.81;101285.13;4921076;28;128034;-58
2021/10/13 08:38:11;;;;;;;;;;;;;;;10.26;62.35;101289.03;4901796;28;128110;-58
2021/10/13 08:40:37;;;;;;;;;;;;;;;10.44;61.79;101285.25;4921855;28;98600;-57
2021/10/13 08:43:03;;;;;;;;;;;;;;;11.43;59.69;101280.88;4921468;28;109225;-58
2021/10/13 08:45:30;;;;;;;;;;;;;;;11.22;60.25;101288.75;4904112;28;110104;-57
2021/10/13 08:47:56;;;;;;;;;;;;;;;11.82;59.40;101283.44;4920434;28;114242;-58
2021/10/13 08:50:22;;;;;;;;;;;;;;;12.13;58.75;101285.38;4921687;28;98653;-56
2021/10/13 08:52:48;;;;;;;;;;;;;;;14.27;54.56;101276.50;4921600;28;99401;-59
2021/10/13 08:55:15;;;;;;;;;;;;;;;14.43;55.25;101284.34;4902190;28;127208;-57
2021/10/13 08:57:41;;;;;;;;;;;;;;;14.06;56.31;101284.59;4920785;28;98695;-57
2021/10/13 09:00:07;;;;;;;;;;;;;;;14.22;56.25;101288.13;4920688;28;127768;-60
2021/10/13 09:02:37;;;;;;;;;;;;;;;13.75;57.03;101290.03;4921444;28;97750;-58
2021/10/13 09:05:04;;;;;;;;;;;;;;;13.28;57.68;101292.84;4921224;28;98570;-58
2021/10/13 09:07:30;;;;;;;;;;;;;;;12.80;58.36;101305.59;4921786;28;98667;-58
2021/10/13 09:09:56;;;;;;;;;;;;;;;12.46;58.82;101291.59;4920725;28;127636;-60
2021/10/13 09:12:48;;;;;;;;;;;;;;;12.20;59.21;101294.09;4921562;28;98128;-57
2021/10/13 09:15:15;;;;;;;;;;;;;;;11.96;59.26;101295.50;4913661;28;127233;-58
2021/10/13 09:18:03;;;;;;;;;;;;;;;11.65;59.48;101300.56;4921580;28;98300;-57
2021/10/13 09:20:34;;;;;;;;;;;;;;;11.51;59.64;101302.88;4922217;28;109618;-57
2021/10/13 09:23:01;;;;;;;;;;;;;;;12.88;56.68;101305.09;4921507;28;99894;-57
2021/10/13 09:25:27;;;;;;;;;;;;;;;12.07;58.54;101310.75;4922459;28;98455;-57
2021/10/13 09:27:53;;;;;;;;;;;;;;;12.81;57.34;101306.41;4902644;28;103213;-57
2021/10/13 09:30:27;;;;;;;;;;;;;;;14.35;54.02;101289.50;4921215;28;111310;-57
2021/10/13 09:32:53;;;;;;;;;;;;;;;13.18;56.73;101300.91;4921336;28;97869;-58
2021/10/13 09:35:29;;;;;;;;;;;;;;;14.58;54.15;101296.25;4921831;28;98410;-58
2021/10/13 09:37:55;;;;;;;;;;;;;;;17.52;49.45;101286.16;4920923;28;98349;-57
2021/10/13 09:40:34;;;;;;;;;;;;;;;17.11;51.21;101303.03;4921369;28;97674;-57
2021/10/13 09:43:01;;;;;;;;;;;;;;;15.95;53.69;101308.47;4920284;28;112128;-58
2021/10/13 09:45:28;;;;;;;;;;;;;;;16.49;52.63;101304.75;4923586;28;98608;-57
2021/10/13 09:47:58;;;;;;;;;;;;;;;18.26;48.67;101301.97;4922590;28;117723;-57
2021/10/13 09:50:36;;;;;;;;;;;;;;;17.23;51.07;101309.97;4924272;28;97844;-57
2021/10/13 09:53:22;;;;;;;;;;;;;;;17.00;51.65;101317.06;4936510;28;100743;-59
2021/10/13 09:55:48;;;;;;;;;;;;;;;20.28;45.57;101305.44;4923768;28;98746;-57
2021/10/13 09:58:28;;;;;;;;;;;;;;;22.97;41.73;101303.81;4923956;28;99195;-58
2021/10/13 10:01:13;;;;;;;;;;;;;;;23.39;41.49;101317.63;4924696;28;98067;-59
2021/10/13 10:03:40;;;;;;;;;;;;;;;22.56;43.58;101323.66;4938400;28;98004;-60
2021/10/13 10:06:06;;;;;;;;;;;;;;;25.10;39.60;101322.97;4937864;28;114597;-57
2021/10/13 10:08:51;;;;;;;;;;;;;;;25.00;40.23;101326.19;4905722;28;100288;-59
2021/10/13 10:11:27;;;;;;;;;;;;;;;26.77;38.19;101323.44;4924630;28;98312;-59
2021/10/13 10:13:53;;;;;;;;;;;;;;;27.33;37.83;101322.41;4923996;28;97877;-59
2021/10/13 10:16:34;;;;;;;;;;;;;;;26.41;39.43;101314.22;4923135;28;128594;-58
2021/10/13 10:19:20;;;;;;;;;;;;;;;27.74;37.76;101315.41;4904550;28;98969;-60
2021/10/13 10:21:56;;;;;;;;;;;;;;;24.63;42.22;101322.56;4924531;28;98214;-59
2021/10/13 10:24:32;;;;;;;;;;;;;;;23.06;43.40;101305.69;4924691;28;97953;-57
2021/10/13 10:27:25;;;;;;;;;;;;;;;21.50;45.12;101313.06;4923830;28;98384;-59
2021/10/13 10:30:17;;;;;;;;;;;;;;;20.47;46.20;101297.00;4923394;28;98216;-59
2021/10/13 10:33:01;;;;;;;;;;;;;;;19.54;46.74;101303.88;4920302;28;98017;-59
2021/10/13 10:35:27;;;;;;;;;;;;;;;19.37;46.42;101304.50;4924182;28;97646;-59
2021/10/13 10:37:54;;;;;;;;;;;;;;;20.63;43.91;101298.22;4922662;28;127267;-59
2021/10/13 10:40:39;;;;;;;;;;;;;;;20.41;44.16;101298.25;4923324;28;98928;-59
2021/10/13 10:43:06;;;;;;;;;;;;;;;22.06;41.69;101281.09;4923958;28;98104;-57
2021/10/13 10:45:39;;;;;;;;;;;;;;;20.83;43.87;101285.94;4924062;28;97808;-59
2021/10/13 10:48:08;;;;;;;;;;;;;;;22.07;41.94;101287.38;4923994;28;98279;-59
2021/10/13 10:50:52;;;;;;;;;;;;;;;22.31;41.90;101286.88;4923756;28;98507;-59
2021/10/13 10:53:22;;;;;;;;;;;;;;;22.38;41.64;101284.44;4923388;28;98026;-60
2021/10/13 10:55:49;;;;;;;;;;;;;;;22.17;41.76;101286.28;4921908;28;97843;-58
2021/10/13 10:58:31;;;;;;;;;;;;;;;21.13;43.48;101283.44;4923237;28;98022;-60
2021/10/13 11:01:01;;;;;;;;;;;;;;;21.77;42.33;101281.78;4923063;28;98560;-59
2021/10/13 11:03:36;;;;;;;;;;;;;;;21.85;42.12;101285.66;4922881;28;98571;-57
2021/10/13 11:06:33;;;;;;;;;;;;;;;21.66;42.40;101287.91;4923556;28;97817;-59
2021/10/13 11:09:03;;;;;;;;;;;;;;;21.36;42.86;101279.47;4910039;28;119739;-57
2021/10/13 11:11:31;;;;;;;;;;;;;;;20.28;44.51;101289.81;4922976;28;100018;-57
2021/10/13 11:14:13;;;;;;;;;;;;;;;19.57;45.57;101289.59;4922803;28;97784;-59
2021/10/13 11:16:47;;;;;;;;;;;;;;;18.98;45.88;101299.59;4923084;28;97834;-59
2021/10/13 11:19:39;;;;;;;;;;;;;;;19.54;44.41;101284.72;4922919;28;97990;-57
2021/10/13 11:22:09;;;;;;;;;;;;;;;19.83;43.89;101287.06;4922411;28;97899;-57
2021/10/13 11:24:37;;;;;;;;;;;;;;;19.98;43.80;101285.09;4923489;28;98214;-59
2021/10/13 11:27:03;;;;;;;;;;;;;;;20.11;43.57;101282.28;4922668;28;108065;-59
2021/10/13 11:29:31;;;;;;;;;;;;;;;19.97;43.72;101297.19;4922658;28;108817;-59
2021/10/13 11:32:14;;;;;;;;;;;;;;;19.97;43.31;101289.78;4904202;28;98804;-59
2021/10/13 11:34:41;;;;;;;;;;;;;;;18.67;44.97;101296.59;4923196;28;98818;-59
2021/10/13 11:37:07;;;;;;;;;;;;;;;18.02;45.76;101300.16;4904118;28;97997;-57
2021/10/13 11:39:36;;;;;;;;;;;;;;;17.94;45.63;101306.28;4922560;28;113485;-59
2021/10/13 11:42:02;;;;;;;;;;;;;;;18.01;45.22;101293.09;4921583;28;98789;-57
2021/10/13 11:44:29;;;;;;;;;;;;;;;18.28;44.87;101297.03;4921940;28;128417;-57
2021/10/13 11:46:59;;;;;;;;;;;;;;;18.11;44.96;101301.09;4923133;28;98114;-58
2021/10/13 11:49:25;;;;;;;;;;;;;;;17.91;45.52;101304.94;4922955;28;98405;-59
2021/10/13 11:52:08;;;;;;;;;;;;;;;18.04;45.00;101306.13;4922484;28;97872;-57
2021/10/13 11:54:34;;;;;;;;;;;;;;;17.50;45.50;101296.53;4923483;28;97817;-59
2021/10/13 11:57:00;;;;;;;;;;;;;;;17.07;46.19;101312.09;4922562;28;97779;-59
2021/10/13 11:59:26;;;;;;;;;;;;;;;16.60;46.63;101309.00;4937513;28;98029;-57
2021/10/13 12:01:52;;;;;;;;;;;;;;;16.61;46.39;101299.72;4935606;28;128229;-60
2021/10/13 12:04:18;;;;;;;;;;;;;;;16.35;46.83;101301.09;4921420;28;125814;-59
2021/10/13 12:06:44;;;;;;;;;;;;;;;16.19;46.95;101301.22;4921841;28;97779;-57
2021/10/13 12:09:10;;;;;;;;;;;;;;;16.34;46.74;101304.88;4922140;28;99780;-60
2021/10/13 12:11:37;;;;;;;;;;;;;;;16.31;46.35;101311.72;4921715;28;128153;-59
2021/10/13 12:14:12;;;;;;;;;;;;;;;15.78;47.04;101314.28;4936862;28;98421;-57
2021/10/13 12:16:38;;;;;;;;;;;;;;;15.45;47.38;101310.38;4923132;28;98426;-59
2021/10/13 12:19:12;;;;;;;;;;;;;;;15.36;47.33;101312.03;4921673;28;98866;-59
2021/10/13 12:21:38;;;;;;;;;;;;;;;15.30;47.31;101313.97;4922767;28;98809;-59
2021/10/13 12:24:05;;;;;;;;;;;;;;;15.27;47.44;101316.44;4922747;28;98254;-57
2021/10/13 12:26:44;;;;;;;;;;;;;;;15.20;47.58;101314.00;4922292;28;98197;-57
2021/10/13 12:29:12;;;;;;;;;;;;;;;15.13;47.64;101313.47;4904476;28;98714;-59
2021/10/13 12:31:38;;;;;;;;;;;;;;;15.11;47.20;101312.97;4920768;28;121491;-57
2021/10/13 12:34:11;;;;;;;;;;;;;;;15.14;47.38;101312.41;4922407;28;98095;-59
2021/10/13 12:36:54;;;;;;;;;;;;;;;15.18;46.96;101303.44;4921842;28;97940;-59
2021/10/13 12:39:29;;;;;;;;;;;;;;;14.90;47.44;101309.50;4922662;28;98450;-57
2021/10/13 12:42:04;;;;;;;;;;;;;;;14.99;47.36;101305.13;4921207;28;99055;-59
2021/10/13 12:44:30;;;;;;;;;;;;;;;14.64;48.05;101306.84;4922454;28;98885;-58
2021/10/13 12:47:01;;;;;;;;;;;;;;;14.67;47.48;101308.19;4922573;28;97971;-59